Terminal Aerodrome Forecast
Issued by NWS

Home | Current Version | Previous Version | Text Only | Print | Product List | Glossary On
Versions: 1 2 3 4 5 6 7 8 9 10 11 12 13 14 15 16 17 18 19 20 21 22 23 24 25 26 27 28 29 30 31 32 33 34 35
000
FTUS41 KCAR 231842 AAD
TAFBHB
TAF AMD
KBHB 231842Z 2319/2418 25006KT P6SM SCT030
     FM232100 23006KT P6SM FEW250
     FM240200 21010KT P6SM FEW250
     FM240400 22010KT 2SM BR SCT250
     FM240900 27009KT 2SM BR SCT250
     FM241200 31008KT P6SM SCT250=

USA.gov is the U.S. government's official web portal to all federal, state and local government web resources and services.